createdAt,value
2018-03-11T00:00:39.734Z,21.20
2018-03-11T00:01:40.007Z,22.00
2018-03-11T00:02:40.258Z,21.60
2018-03-11T00:03:40.505Z,21.80
2018-03-11T00:04:40.752Z,22.10
2018-03-11T00:07:14.108Z,22.20
2018-03-11T00:08:14.354Z,23.00
2018-03-11T00:09:14.667Z,22.70
2018-03-11T00:10:14.945Z,21.20
2018-03-11T00:11:15.198Z,21.50
2018-03-11T00:12:15.452Z,21.30
2018-03-11T00:13:15.700Z,21.90
2018-03-11T00:14:15.969Z,22.00
2018-03-11T00:15:16.221Z,21.70
2018-03-11T00:16:16.472Z,22.20
2018-03-11T00:17:16.730Z,22.10
2018-03-11T00:18:16.974Z,22.20
2018-03-11T00:19:17.231Z,22.30
2018-03-11T00:20:17.498Z,21.80
2018-03-11T00:21:17.754Z,21.60
2018-03-11T00:22:17.998Z,21.40
2018-03-11T00:23:18.253Z,21.40
2018-03-11T00:24:18.500Z,21.50
2018-03-11T00:25:18.762Z,21.90
2018-03-11T00:26:19.002Z,22.30
2018-03-11T00:27:19.302Z,21.80
2018-03-11T00:28:19.540Z,22.80
2018-03-11T00:29:19.813Z,22.10
2018-03-11T00:30:20.042Z,21.30
2018-03-11T00:31:20.294Z,21.80
2018-03-11T00:32:20.542Z,21.60
2018-03-11T00:33:20.794Z,21.40
2018-03-11T00:34:21.043Z,22.60
2018-03-11T00:35:21.295Z,21.80
2018-03-11T00:36:21.551Z,21.70
2018-03-11T00:37:21.804Z,22.20
2018-03-11T00:38:22.059Z,22.10
2018-03-11T00:39:22.320Z,22.70
2018-03-11T00:40:22.564Z,22.10
2018-03-11T00:41:22.824Z,22.60
2018-03-11T00:42:23.060Z,22.00
2018-03-11T00:43:23.314Z,22.20
2018-03-11T00:44:23.566Z,21.50
2018-03-11T00:45:23.815Z,22.60
2018-03-11T00:46:24.055Z,22.00
2018-03-11T00:47:24.305Z,21.90
2018-03-11T00:48:24.552Z,21.80
2018-03-11T00:49:24.785Z,21.30
2018-03-11T00:51:58.144Z,22.80
2018-03-11T00:52:58.397Z,21.30
2018-03-11T00:53:58.652Z,22.50
2018-03-11T00:54:58.915Z,22.60
2018-03-11T00:55:59.150Z,24.00
2018-03-11T00:56:59.399Z,23.10
2018-03-11T00:57:59.641Z,23.90
2018-03-11T00:58:59.902Z,25.00
2018-03-11T01:00:00.154Z,23.90
2018-03-11T01:01:00.423Z,24.00
2018-03-11T01:02:00.668Z,23.00
2018-03-11T01:03:00.975Z,22.80
2018-03-11T01:04:01.242Z,22.60
2018-03-11T01:05:01.494Z,22.60
2018-03-11T01:06:01.751Z,21.80
2018-03-11T01:07:01.994Z,21.90
2018-03-11T01:08:02.247Z,21.50
2018-03-11T01:09:02.498Z,20.70
2018-03-11T01:10:02.758Z,21.40
2018-03-11T01:11:03.011Z,21.00
2018-03-11T01:12:03.266Z,21.70
2018-03-11T01:13:03.521Z,21.90
2018-03-11T01:14:03.766Z,22.30
2018-03-11T01:15:04.070Z,24.70
2018-03-11T01:16:04.263Z,23.30
2018-03-11T01:17:04.519Z,22.50
2018-03-11T01:18:04.768Z,22.00
2018-03-11T01:19:05.029Z,25.10
2018-03-11T01:20:05.238Z,25.10
2018-03-11T01:21:05.496Z,23.00
2018-03-11T01:22:05.741Z,25.20
2018-03-11T01:23:06.000Z,24.60
2018-03-11T01:24:06.245Z,24.90
2018-03-11T01:25:06.525Z,24.10
2018-03-11T01:26:06.771Z,24.20
2018-03-11T01:27:07.000Z,24.10
2018-03-11T01:28:07.242Z,23.60
2018-03-11T01:29:07.492Z,23.80
2018-03-11T01:30:07.782Z,24.50
2018-03-11T01:31:08.034Z,23.90
2018-03-11T01:32:08.239Z,23.60
2018-03-11T01:33:08.493Z,24.60
2018-03-11T01:34:08.741Z,24.00
2018-03-11T01:35:08.997Z,25.40
2018-03-11T01:36:09.245Z,23.60
2018-03-11T01:37:09.486Z,23.10
2018-03-11T01:38:09.737Z,23.40
2018-03-11T01:39:09.979Z,23.20
2018-03-11T01:40:10.243Z,23.60
2018-03-11T01:41:10.492Z,22.80
2018-03-11T01:42:10.749Z,24.10
2018-03-11T01:43:11.006Z,22.60
2018-03-11T01:44:11.237Z,22.80
2018-03-11T01:45:11.472Z,23.00
2018-03-11T01:46:11.744Z,23.10
2018-03-11T01:47:11.974Z,23.90
2018-03-11T01:48:12.222Z,22.50
2018-03-11T01:49:12.476Z,23.40
2018-03-11T01:50:12.722Z,23.10
2018-03-11T01:51:12.976Z,23.30
2018-03-11T01:52:13.234Z,22.50
2018-03-11T01:53:13.468Z,22.60
2018-03-11T01:54:13.719Z,22.20
2018-03-11T01:55:13.975Z,23.00
2018-03-11T01:56:14.199Z,23.10
2018-03-11T01:57:14.449Z,23.20
2018-03-11T01:58:14.684Z,22.00
2018-03-11T01:59:14.928Z,23.60
2018-03-11T02:00:15.176Z,23.10
2018-03-11T02:01:15.432Z,23.20
2018-03-11T02:02:15.684Z,23.30
2018-03-11T02:03:15.921Z,22.30
2018-03-11T02:04:16.172Z,22.40
2018-03-11T02:05:16.430Z,22.70
2018-03-11T02:06:16.671Z,22.10
2018-03-11T02:07:16.917Z,23.00
2018-03-11T02:08:17.188Z,23.10
2018-03-11T02:09:17.431Z,23.40
2018-03-11T02:10:17.705Z,22.70
2018-03-11T02:11:17.953Z,22.30
2018-03-11T02:12:18.189Z,23.40
2018-03-11T02:13:18.440Z,23.30
2018-03-11T02:14:18.689Z,24.00
2018-03-11T02:15:18.940Z,23.60
2018-03-11T02:16:19.191Z,24.10
2018-03-11T02:17:19.442Z,24.60
2018-03-11T02:18:19.696Z,23.80
2018-03-11T02:19:19.943Z,23.70
2018-03-11T02:20:20.201Z,23.30
2018-03-11T02:21:20.456Z,23.30
2018-03-11T02:22:20.705Z,23.90
2018-03-11T02:23:20.959Z,23.30
2018-03-11T02:24:21.202Z,23.70
2018-03-11T02:25:21.464Z,24.80
2018-03-11T02:26:21.702Z,23.70
2018-03-11T02:27:21.934Z,23.20
2018-03-11T02:28:22.184Z,23.40
2018-03-11T02:29:22.436Z,24.00
2018-03-11T02:30:22.687Z,23.00
2018-03-11T02:31:22.955Z,23.00
2018-03-11T02:32:23.187Z,22.50
2018-03-11T02:33:23.439Z,22.70
2018-03-11T02:34:23.689Z,22.80
2018-03-11T02:35:23.941Z,22.90
2018-03-11T02:36:24.194Z,22.40
2018-03-11T02:37:24.433Z,22.50
2018-03-11T02:38:24.685Z,22.20
2018-03-11T02:39:24.929Z,21.70
2018-03-11T02:40:25.181Z,21.50
2018-03-11T02:41:25.426Z,21.30
2018-03-11T02:42:25.678Z,21.10
2018-03-11T02:43:25.920Z,20.80
2018-03-11T02:44:26.144Z,21.20
2018-03-11T02:45:26.407Z,21.40
2018-03-11T02:46:26.663Z,20.90
2018-03-11T02:47:26.903Z,21.60
2018-03-11T02:48:27.147Z,20.90
2018-03-11T02:49:27.395Z,21.00
2018-03-11T02:50:27.632Z,21.60
2018-03-11T02:51:27.890Z,21.30
2018-03-11T02:52:28.200Z,21.60
2018-03-11T02:53:28.383Z,21.30
2018-03-11T02:54:28.659Z,20.70
2018-03-11T02:55:28.913Z,21.50
2018-03-11T02:56:29.167Z,21.10
2018-03-11T02:57:29.420Z,20.50
2018-03-11T02:58:29.670Z,20.10
2018-03-11T02:59:29.922Z,21.40
2018-03-11T03:00:30.169Z,20.80
2018-03-11T03:01:30.421Z,20.50
2018-03-11T03:02:30.677Z,20.80
2018-03-11T03:03:30.931Z,20.20
2018-03-11T03:04:31.179Z,20.30
2018-03-11T03:05:31.436Z,19.20
2018-03-11T03:06:31.685Z,20.00
2018-03-11T03:07:31.936Z,19.40
2018-03-11T03:08:32.186Z,19.10
2018-03-11T03:09:32.442Z,19.00
2018-03-11T03:10:32.692Z,19.10
2018-03-11T03:11:32.944Z,18.40
2018-03-11T03:12:33.195Z,18.80
2018-03-11T03:13:33.454Z,18.50
2018-03-11T03:14:33.710Z,18.30
2018-03-11T03:15:33.959Z,18.60
2018-03-11T03:16:34.214Z,18.50
2018-03-11T03:17:34.470Z,19.00
2018-03-11T03:18:34.730Z,18.40
2018-03-11T03:19:34.981Z,19.10
2018-03-11T03:20:35.250Z,18.50
2018-03-11T03:21:35.499Z,17.80
2018-03-11T03:22:35.751Z,18.00
2018-03-11T03:23:36.008Z,18.60
2018-03-11T03:24:36.260Z,19.30
2018-03-11T03:25:36.515Z,18.70
2018-03-11T03:26:36.775Z,18.10
2018-03-11T03:27:37.018Z,17.80
2018-03-11T03:28:37.274Z,18.20
2018-03-11T03:29:37.529Z,17.80
2018-03-11T03:30:37.784Z,18.40
2018-03-11T03:31:38.035Z,17.40
2018-03-11T03:32:38.286Z,18.30
2018-03-11T03:33:38.537Z,17.90
2018-03-11T03:34:38.806Z,16.70
2018-03-11T03:35:39.060Z,16.70
2018-03-11T03:36:39.313Z,16.80
2018-03-11T03:37:39.563Z,17.10
2018-03-11T03:38:39.820Z,18.10
2018-03-11T03:39:40.065Z,17.90
2018-03-11T03:40:40.323Z,18.00
2018-03-11T03:41:40.572Z,17.80
2018-03-11T03:42:40.826Z,18.60
2018-03-11T03:43:41.076Z,18.30
2018-03-11T03:44:41.334Z,18.60
2018-03-11T03:45:41.584Z,19.10
2018-03-11T03:46:41.837Z,18.40
2018-03-11T03:47:42.086Z,18.30
2018-03-11T03:48:42.339Z,18.20
2018-03-11T03:49:42.592Z,18.10
2018-03-11T03:50:42.847Z,17.80
2018-03-11T03:51:43.099Z,18.20
2018-03-11T03:52:43.354Z,18.20
2018-03-11T03:53:43.608Z,19.20
2018-03-11T03:54:43.904Z,19.00
2018-03-11T03:55:44.121Z,19.60
2018-03-11T03:56:44.377Z,20.00
2018-03-11T03:57:44.628Z,20.70
2018-03-11T03:58:44.883Z,21.20
2018-03-11T03:59:45.133Z,22.80
2018-03-11T04:00:45.387Z,21.90
2018-03-11T04:01:45.636Z,21.20
2018-03-11T04:02:45.893Z,19.10
2018-03-11T04:03:46.142Z,18.40
2018-03-11T04:04:46.387Z,19.90
2018-03-11T04:05:46.635Z,19.80
2018-03-11T04:06:46.892Z,19.90
2018-03-11T04:07:47.148Z,19.40
2018-03-11T04:08:47.402Z,19.90
2018-03-11T04:09:47.656Z,20.00
2018-03-11T04:10:47.906Z,19.40
2018-03-11T04:11:48.162Z,20.00
2018-03-11T04:12:48.416Z,20.10
2018-03-11T04:13:48.669Z,18.30
2018-03-11T04:14:48.924Z,19.30
2018-03-11T04:15:49.176Z,17.70
2018-03-11T04:16:49.431Z,17.80
2018-03-11T04:17:49.684Z,18.40
2018-03-11T04:18:49.939Z,18.40
2018-03-11T04:19:50.189Z,17.40
2018-03-11T04:20:50.444Z,17.20
2018-03-11T04:21:50.700Z,17.50
2018-03-11T04:22:50.951Z,17.40
2018-03-11T04:23:51.209Z,17.60
2018-03-11T04:24:51.458Z,17.40
2018-03-11T04:25:51.713Z,17.50
2018-03-11T04:26:51.968Z,17.60
2018-03-11T04:27:52.222Z,17.80
2018-03-11T04:28:52.473Z,17.80
2018-03-11T04:29:52.724Z,17.00
2018-03-11T04:30:52.975Z,17.70
2018-03-11T04:31:53.241Z,18.50
2018-03-11T04:32:53.482Z,17.50
2018-03-11T04:33:53.733Z,18.60
2018-03-11T04:34:53.988Z,17.90
2018-03-11T04:35:54.248Z,17.90
2018-03-11T04:36:54.497Z,18.00
2018-03-11T04:37:54.745Z,17.10
2018-03-11T04:38:54.999Z,17.10
2018-03-11T04:39:55.253Z,17.30
2018-03-11T04:40:55.503Z,16.40
2018-03-11T04:41:55.755Z,15.70
2018-03-11T04:42:56.010Z,16.10
2018-03-11T04:43:56.261Z,16.80
2018-03-11T04:44:56.515Z,16.10
2018-03-11T04:45:56.773Z,15.90
2018-03-11T04:46:57.025Z,16.10
2018-03-11T04:47:57.279Z,16.20
2018-03-11T04:48:57.538Z,15.90
2018-03-11T04:49:57.778Z,16.60
2018-03-11T04:50:58.159Z,17.00
2018-03-11T04:51:58.411Z,15.60
2018-03-11T04:52:58.666Z,15.90
2018-03-11T04:53:58.915Z,16.10
2018-03-11T04:54:59.164Z,16.50
2018-03-11T04:55:59.413Z,15.70
2018-03-11T04:56:59.661Z,16.40
2018-03-11T04:57:59.919Z,15.70
2018-03-11T04:59:00.166Z,16.30
2018-03-11T05:00:00.425Z,15.60
2018-03-11T05:01:00.674Z,15.40
2018-03-11T05:02:00.924Z,15.90
2018-03-11T05:03:01.180Z,15.30
2018-03-11T05:04:01.432Z,15.00
2018-03-11T05:05:01.688Z,15.50
2018-03-11T05:06:01.939Z,15.30
2018-03-11T05:07:02.191Z,14.90
2018-03-11T05:08:02.438Z,15.20
2018-03-11T05:09:02.691Z,15.60
2018-03-11T05:10:02.943Z,15.80
2018-03-11T05:11:03.196Z,16.20
2018-03-11T05:12:03.448Z,15.70
2018-03-11T05:13:03.701Z,15.20
2018-03-11T05:14:03.954Z,15.40
2018-03-11T05:15:04.202Z,14.90
2018-03-11T05:16:04.454Z,15.50
2018-03-11T05:17:04.714Z,15.40
2018-03-11T05:18:04.965Z,15.70
2018-03-11T05:19:05.217Z,15.20
2018-03-11T05:20:05.470Z,15.60
2018-03-11T05:21:05.720Z,15.70
2018-03-11T05:22:05.975Z,16.40
2018-03-11T05:23:06.217Z,15.10
2018-03-11T05:24:06.472Z,14.90
2018-03-11T05:25:06.724Z,15.30
2018-03-11T05:26:06.974Z,15.80
2018-03-11T05:27:07.228Z,15.30
2018-03-11T05:28:07.482Z,15.40
2018-03-11T05:29:07.737Z,14.80
2018-03-11T05:30:08.009Z,15.10
2018-03-11T05:31:08.261Z,15.40
2018-03-11T05:32:08.514Z,15.80
2018-03-11T05:33:08.771Z,16.50
2018-03-11T05:34:09.026Z,15.70
2018-03-11T05:35:09.272Z,16.30
2018-03-11T05:36:09.533Z,15.80
2018-03-11T05:37:09.786Z,16.00
2018-03-11T05:38:10.038Z,15.20
2018-03-11T05:39:10.289Z,15.50
2018-03-11T05:40:10.545Z,15.50
2018-03-11T05:41:10.799Z,15.90
2018-03-11T05:42:11.054Z,14.70
2018-03-11T05:43:11.325Z,15.90
2018-03-11T05:44:11.577Z,16.10
2018-03-11T05:46:44.936Z,18.50
2018-03-11T05:47:45.193Z,16.90
2018-03-11T05:48:45.489Z,16.80
2018-03-11T05:49:45.697Z,16.90
2018-03-11T05:50:45.950Z,17.60
2018-03-11T05:51:46.205Z,18.40
2018-03-11T05:52:46.457Z,17.50
2018-03-11T05:53:46.709Z,15.90
2018-03-11T05:54:46.970Z,15.50
2018-03-11T05:55:47.220Z,15.30
2018-03-11T05:56:47.472Z,15.40
2018-03-11T05:57:47.746Z,15.40
2018-03-11T05:58:48.001Z,15.30
2018-03-11T05:59:48.250Z,14.70
2018-03-11T06:00:48.502Z,15.10
2018-03-11T06:01:48.756Z,14.60
2018-03-11T06:02:49.007Z,15.30
2018-03-11T06:03:49.260Z,14.80
2018-03-11T06:04:49.517Z,15.10
2018-03-11T06:05:49.764Z,15.50
2018-03-11T06:06:50.015Z,15.30
2018-03-11T06:07:50.269Z,15.30
2018-03-11T06:08:50.517Z,15.90
2018-03-11T06:09:50.766Z,15.60
2018-03-11T06:10:51.021Z,15.30
2018-03-11T06:11:51.273Z,14.70
2018-03-11T06:12:51.519Z,14.70
2018-03-11T06:13:51.775Z,14.70
2018-03-11T06:14:52.021Z,14.40
2018-03-11T06:15:52.279Z,14.80
2018-03-11T06:16:52.578Z,15.90
2018-03-11T06:17:52.772Z,16.00
2018-03-11T06:18:53.028Z,16.60
2018-03-11T06:19:53.278Z,16.20
2018-03-11T06:20:53.534Z,16.30
2018-03-11T06:21:53.785Z,17.40
2018-03-11T06:22:54.036Z,16.90
2018-03-11T06:23:54.297Z,17.40
2018-03-11T06:24:54.550Z,17.50
2018-03-11T06:25:54.804Z,16.80
2018-03-11T06:26:55.055Z,16.70
2018-03-11T06:27:55.312Z,17.70
2018-03-11T06:28:55.566Z,17.20
2018-03-11T06:29:55.817Z,19.20
2018-03-11T06:30:56.070Z,22.00
2018-03-11T06:31:56.326Z,20.50
2018-03-11T06:32:56.583Z,18.40
2018-03-11T06:33:56.840Z,18.50
2018-03-11T06:34:57.098Z,20.60
2018-03-11T06:35:57.352Z,24.00
2018-03-11T06:36:57.606Z,23.30
2018-03-11T06:37:57.850Z,24.60
2018-03-11T06:38:58.106Z,24.90
2018-03-11T06:39:58.355Z,24.60
2018-03-11T06:40:58.604Z,25.60
2018-03-11T06:41:58.853Z,25.80
2018-03-11T06:42:59.114Z,25.20
2018-03-11T06:43:59.359Z,26.00
2018-03-11T06:44:59.615Z,25.80
2018-03-11T06:45:59.867Z,27.00
2018-03-11T06:47:00.122Z,26.60
2018-03-11T06:48:00.373Z,26.50
2018-03-11T06:49:00.633Z,27.30
2018-03-11T06:50:00.881Z,28.00
2018-03-11T06:51:01.133Z,26.60
2018-03-11T06:52:01.384Z,25.70
2018-03-11T06:53:01.636Z,30.50
2018-03-11T06:54:01.895Z,26.80
2018-03-11T06:55:02.142Z,26.40
2018-03-11T06:56:02.396Z,24.90
2018-03-11T06:57:02.650Z,24.10
2018-03-11T06:58:02.904Z,24.70
2018-03-11T06:59:03.160Z,25.40
2018-03-11T07:00:03.406Z,24.20
2018-03-11T07:01:03.659Z,24.30
2018-03-11T07:02:03.914Z,26.10
2018-03-11T07:03:04.167Z,24.00
2018-03-11T07:04:04.419Z,23.80
2018-03-11T07:05:04.673Z,23.40
2018-03-11T07:06:04.937Z,24.40
2018-03-11T07:07:05.194Z,24.80
2018-03-11T07:08:05.450Z,24.30
2018-03-11T07:09:05.708Z,24.70
2018-03-11T07:10:05.968Z,24.50
2018-03-11T07:11:06.212Z,24.60
2018-03-11T07:12:06.463Z,24.40
2018-03-11T07:13:06.734Z,25.00
2018-03-11T07:14:06.971Z,25.20
2018-03-11T07:15:07.223Z,26.30
2018-03-11T07:16:07.475Z,26.80
2018-03-11T07:17:07.737Z,26.20
2018-03-11T07:18:07.984Z,26.60
2018-03-11T07:19:08.263Z,26.20
2018-03-11T07:20:08.509Z,24.80
2018-03-11T07:21:08.761Z,26.10
2018-03-11T07:22:09.065Z,26.80
2018-03-11T07:23:09.264Z,25.80
2018-03-11T07:24:09.534Z,25.60
2018-03-11T07:25:09.789Z,24.30
2018-03-11T07:26:10.040Z,24.20
2018-03-11T07:27:10.290Z,23.90
2018-03-11T07:28:10.538Z,23.30
2018-03-11T07:29:10.791Z,23.40
2018-03-11T07:30:11.046Z,23.10
2018-03-11T07:31:11.299Z,23.70
2018-03-11T07:32:11.550Z,22.60
2018-03-11T07:33:11.807Z,22.60
2018-03-11T07:34:12.065Z,21.80
2018-03-11T07:35:12.317Z,22.00
2018-03-11T07:36:12.574Z,22.10
2018-03-11T07:37:12.831Z,21.20
2018-03-11T07:38:13.080Z,21.40
2018-03-11T07:39:13.336Z,21.40
2018-03-11T07:40:13.588Z,21.70
2018-03-11T07:41:13.846Z,22.00
2018-03-11T07:42:14.100Z,21.40
2018-03-11T07:43:14.357Z,21.50
2018-03-11T07:44:14.611Z,20.90
2018-03-11T07:45:14.864Z,21.10
2018-03-11T07:46:15.125Z,20.60
2018-03-11T07:47:15.382Z,21.30
2018-03-11T07:48:15.639Z,20.00
2018-03-11T07:49:15.917Z,18.10
2018-03-11T07:50:16.148Z,18.60
2018-03-11T07:51:16.403Z,17.90
2018-03-11T07:52:16.652Z,17.90
2018-03-11T07:53:16.912Z,17.50
2018-03-11T07:54:17.161Z,15.30
2018-03-11T07:55:17.426Z,15.70
2018-03-11T07:56:17.677Z,14.20
2018-03-11T07:57:17.938Z,13.30
2018-03-11T07:58:18.193Z,12.60
2018-03-11T07:59:18.454Z,12.90
2018-03-11T08:00:18.710Z,12.60
2018-03-11T08:01:18.966Z,12.30
2018-03-11T08:02:19.222Z,12.40
2018-03-11T08:03:19.466Z,12.90
2018-03-11T08:04:19.725Z,12.80
2018-03-11T08:05:19.973Z,13.10
2018-03-11T08:06:20.231Z,12.80
2018-03-11T08:07:20.477Z,13.00
2018-03-11T08:08:20.732Z,12.10
2018-03-11T08:09:20.993Z,12.50
2018-03-11T08:10:21.250Z,12.70
2018-03-11T08:11:21.503Z,12.60
2018-03-11T08:12:21.761Z,12.50
2018-03-11T08:13:22.014Z,13.10
2018-03-11T08:14:22.273Z,12.90
2018-03-11T08:15:22.523Z,13.20
2018-03-11T08:16:22.779Z,13.10
2018-03-11T08:17:23.031Z,12.40
2018-03-11T08:18:23.287Z,12.80
2018-03-11T08:19:23.540Z,12.10
2018-03-11T08:20:23.795Z,11.90
2018-03-11T08:21:24.050Z,12.60
2018-03-11T08:22:24.303Z,12.40
2018-03-11T08:23:24.556Z,12.80
2018-03-11T08:24:24.818Z,12.60
2018-03-11T08:25:25.065Z,12.10
2018-03-11T08:26:25.325Z,12.60
2018-03-11T08:27:25.574Z,13.10
2018-03-11T08:28:25.837Z,12.40
2018-03-11T08:29:26.093Z,14.20
2018-03-11T08:30:26.347Z,13.20
2018-03-11T08:31:26.614Z,13.80
2018-03-11T08:32:26.868Z,12.90
2018-03-11T08:33:27.121Z,13.20
2018-03-11T08:34:27.380Z,13.20
2018-03-11T08:35:27.634Z,13.20
2018-03-11T08:36:27.888Z,13.90
2018-03-11T08:37:28.141Z,14.10
2018-03-11T08:38:28.399Z,13.50
2018-03-11T08:39:28.657Z,13.20
2018-03-11T08:40:28.911Z,13.10
2018-03-11T08:41:29.170Z,13.40
2018-03-11T08:42:29.427Z,12.90
2018-03-11T08:43:29.682Z,12.90
2018-03-11T08:44:29.940Z,13.70
2018-03-11T08:45:30.198Z,12.90
2018-03-11T08:46:30.455Z,12.80
2018-03-11T08:47:30.709Z,13.50
2018-03-11T08:48:30.963Z,12.00
2018-03-11T08:49:31.217Z,11.80
2018-03-11T08:50:31.493Z,11.60
2018-03-11T08:51:31.752Z,12.40
2018-03-11T08:52:32.008Z,12.30
2018-03-11T08:53:32.264Z,12.50
2018-03-11T08:54:32.526Z,11.60
2018-03-11T08:55:32.781Z,12.70
2018-03-11T08:56:33.042Z,12.20
2018-03-11T08:57:33.299Z,12.80
2018-03-11T08:58:33.561Z,12.70
2018-03-11T08:59:33.820Z,12.00
2018-03-11T09:00:34.079Z,12.40
2018-03-11T09:01:34.330Z,11.90
2018-03-11T09:02:34.589Z,12.40
2018-03-11T09:03:34.840Z,12.50
2018-03-11T09:04:35.108Z,12.10
2018-03-11T09:05:35.382Z,12.40
2018-03-11T09:06:35.622Z,12.20
2018-03-11T09:07:35.881Z,12.10
2018-03-11T09:08:36.140Z,12.70
2018-03-11T09:09:36.401Z,12.30
2018-03-11T09:10:36.717Z,14.20
2018-03-11T09:11:36.918Z,12.70
2018-03-11T09:12:37.169Z,12.90
2018-03-11T09:13:37.424Z,11.70
2018-03-11T09:14:37.679Z,12.40
2018-03-11T09:15:37.942Z,12.10
2018-03-11T09:16:38.199Z,11.90
2018-03-11T09:17:38.461Z,11.70
2018-03-11T09:18:38.719Z,10.40
2018-03-11T09:19:38.980Z,10.90
2018-03-11T09:20:39.245Z,11.10
2018-03-11T09:21:39.549Z,10.80
2018-03-11T09:22:39.760Z,11.30
2018-03-11T09:23:40.016Z,11.20
2018-03-11T09:24:40.277Z,11.60
2018-03-11T09:25:40.525Z,11.00
2018-03-11T09:26:40.783Z,10.50
2018-03-11T09:27:41.049Z,10.50
2018-03-11T09:28:41.309Z,10.50
2018-03-11T09:29:41.574Z,10.60
2018-03-11T09:30:41.827Z,10.60
2018-03-11T09:31:42.084Z,9.80
2018-03-11T09:32:42.345Z,9.80
2018-03-11T09:33:42.603Z,9.60
2018-03-11T09:34:42.872Z,9.40
2018-03-11T09:35:43.126Z,9.70
2018-03-11T09:36:43.387Z,9.40
2018-03-11T09:37:43.643Z,9.90
2018-03-11T09:38:43.901Z,9.90
2018-03-11T09:39:44.162Z,9.70
2018-03-11T09:40:44.418Z,9.30
2018-03-11T09:41:44.679Z,9.20
2018-03-11T09:42:44.934Z,9.80
2018-03-11T09:43:45.195Z,8.70
2018-03-11T09:44:45.457Z,8.50
2018-03-11T09:45:45.715Z,8.10
2018-03-11T09:46:45.973Z,8.80
2018-03-11T09:47:46.229Z,8.40
2018-03-11T09:48:46.486Z,9.00
2018-03-11T09:49:46.802Z,8.90
2018-03-11T09:50:47.008Z,8.70
2018-03-11T09:51:47.269Z,9.10
2018-03-11T09:52:47.529Z,9.00
2018-03-11T09:53:47.790Z,8.50
2018-03-11T09:54:48.052Z,8.90
2018-03-11T09:55:48.311Z,9.20
2018-03-11T09:56:48.602Z,8.90
2018-03-11T09:57:48.831Z,9.20
2018-03-11T09:58:49.090Z,8.20
2018-03-11T09:59:49.341Z,7.90
2018-03-11T10:00:49.601Z,8.40
2018-03-11T10:01:49.859Z,8.60
2018-03-11T10:02:50.120Z,8.80
2018-03-11T10:03:50.376Z,7.90
2018-03-11T10:04:50.635Z,8.20
2018-03-11T10:05:50.903Z,7.70
2018-03-11T10:06:51.163Z,7.60
2018-03-11T10:07:51.420Z,7.50
2018-03-11T10:08:51.689Z,7.80
2018-03-11T10:09:51.945Z,7.60
2018-03-11T10:10:52.198Z,7.40
2018-03-11T10:11:52.456Z,7.50
2018-03-11T10:12:52.716Z,7.50
2018-03-11T10:13:52.975Z,7.20
2018-03-11T10:14:53.238Z,7.80
2018-03-11T10:15:53.498Z,7.50
2018-03-11T10:16:53.756Z,7.30
2018-03-11T10:17:54.018Z,7.00
2018-03-11T10:18:54.275Z,6.70
2018-03-11T10:19:54.536Z,7.40
2018-03-11T10:20:54.800Z,6.70
2018-03-11T10:21:55.082Z,6.80
2018-03-11T10:22:55.317Z,6.80
2018-03-11T10:23:55.579Z,7.10
2018-03-11T10:24:55.832Z,7.00
2018-03-11T10:25:56.097Z,6.90
2018-03-11T10:26:56.354Z,6.90
2018-03-11T10:27:56.614Z,6.30
2018-03-11T10:28:56.885Z,6.80
2018-03-11T10:29:57.130Z,6.20
2018-03-11T10:30:57.389Z,6.30
2018-03-11T10:31:57.654Z,5.60
2018-03-11T10:32:57.913Z,6.20
2018-03-11T10:33:58.177Z,5.90
2018-03-11T10:34:58.432Z,6.20
2018-03-11T10:35:58.693Z,6.20
2018-03-11T10:36:58.953Z,5.80
2018-03-11T10:37:59.219Z,6.10
2018-03-11T10:38:59.476Z,6.20
2018-03-11T10:39:59.736Z,6.30
2018-03-11T10:41:00.001Z,6.40
2018-03-11T10:42:00.264Z,6.10
2018-03-11T10:43:00.522Z,5.70
2018-03-11T10:44:00.783Z,5.80
2018-03-11T10:45:01.046Z,5.90
2018-03-11T10:46:01.307Z,5.90
2018-03-11T10:47:01.566Z,6.00
2018-03-11T10:48:01.834Z,5.60
2018-03-11T10:49:02.091Z,5.60
2018-03-11T10:50:02.369Z,5.10
2018-03-11T10:51:02.614Z,5.40
2018-03-11T10:52:02.870Z,4.80
2018-03-11T10:53:03.135Z,5.10
2018-03-11T10:54:03.395Z,4.80
2018-03-11T10:55:03.659Z,4.70
2018-03-11T10:56:03.925Z,4.00
2018-03-11T10:57:04.185Z,3.60
2018-03-11T10:58:04.441Z,3.40
2018-03-11T10:59:04.720Z,3.90
2018-03-11T11:00:04.975Z,4.00
2018-03-11T11:01:05.237Z,4.20
2018-03-11T11:02:05.496Z,4.20
2018-03-11T11:03:05.759Z,4.00
2018-03-11T11:04:06.018Z,4.00
2018-03-11T11:05:06.275Z,4.20
2018-03-11T11:06:06.542Z,4.10
2018-03-11T11:07:06.806Z,4.40
2018-03-11T11:08:07.068Z,4.20
2018-03-11T11:09:07.332Z,4.00
2018-03-11T11:10:07.592Z,4.00
2018-03-11T11:11:07.853Z,4.00
2018-03-11T11:12:08.114Z,3.70
2018-03-11T11:13:08.376Z,3.20
2018-03-11T11:14:08.655Z,3.50
2018-03-11T11:15:08.915Z,3.20
2018-03-11T11:16:09.179Z,3.40
2018-03-11T11:17:09.440Z,3.30
2018-03-11T11:18:09.700Z,2.20
2018-03-11T11:19:09.967Z,1.70
2018-03-11T11:20:10.228Z,1.60
2018-03-11T11:21:10.492Z,1.50
2018-03-11T11:22:10.751Z,1.70
2018-03-11T11:23:11.016Z,1.20
2018-03-11T11:24:11.278Z,1.00
2018-03-11T11:25:11.536Z,1.60
2018-03-11T11:26:11.798Z,1.60
2018-03-11T11:27:12.057Z,1.50
2018-03-11T11:28:12.314Z,1.50
2018-03-11T11:29:12.578Z,1.30
2018-03-11T11:30:12.839Z,1.30
2018-03-11T11:31:13.168Z,1.40
2018-03-11T11:32:13.364Z,1.30
2018-03-11T11:33:13.624Z,1.20
2018-03-11T11:34:13.886Z,1.40
2018-03-11T11:35:14.155Z,1.10
2018-03-11T11:36:14.411Z,1.40
2018-03-11T11:37:14.684Z,1.30
2018-03-11T11:38:14.938Z,1.60
2018-03-11T11:39:15.193Z,1.60
2018-03-11T11:40:15.454Z,1.40
2018-03-11T11:41:15.716Z,1.50
2018-03-11T11:42:15.974Z,1.30
2018-03-11T11:43:16.238Z,1.30
2018-03-11T11:44:16.497Z,1.50
2018-03-11T11:45:16.777Z,1.50
2018-03-11T11:46:17.041Z,1.40
2018-03-11T11:47:17.306Z,1.30
2018-03-11T11:48:17.564Z,1.30
2018-03-11T11:49:17.829Z,1.50
2018-03-11T11:50:18.087Z,1.30
2018-03-11T11:51:18.344Z,1.30
2018-03-11T11:52:18.607Z,1.20
2018-03-11T11:53:18.866Z,1.20
2018-03-11T11:54:19.127Z,1.30
2018-03-11T11:55:19.395Z,1.40
2018-03-11T11:56:19.636Z,1.30
2018-03-11T11:57:19.900Z,1.40
2018-03-11T11:58:20.160Z,1.30
2018-03-11T11:59:20.433Z,1.20
2018-03-11T12:00:20.694Z,1.40
2018-03-11T12:01:20.979Z,1.20
2018-03-11T12:02:21.222Z,1.20
2018-03-11T12:03:21.485Z,1.40
2018-03-11T12:04:21.747Z,1.80
2018-03-11T12:05:22.029Z,1.60
2018-03-11T12:06:22.269Z,1.20
2018-03-11T12:07:22.529Z,1.40
2018-03-11T12:08:22.793Z,1.20
2018-03-11T12:09:23.050Z,1.40
2018-03-11T12:10:23.303Z,1.50
2018-03-11T12:11:23.566Z,1.40
2018-03-11T12:12:23.828Z,1.40
2018-03-11T12:13:24.088Z,1.30
2018-03-11T12:14:24.352Z,1.10
2018-03-11T12:15:24.606Z,1.40
2018-03-11T12:16:24.879Z,1.20
2018-03-11T12:17:25.185Z,1.30
2018-03-11T12:18:25.396Z,1.30
2018-03-11T12:19:25.660Z,1.50
2018-03-11T12:20:25.930Z,1.50
2018-03-11T12:21:26.186Z,1.30
2018-03-11T12:22:26.445Z,1.40
2018-03-11T12:23:26.704Z,1.40
2018-03-11T12:24:26.971Z,1.60
2018-03-11T12:25:27.226Z,1.50
2018-03-11T12:26:27.485Z,1.60
2018-03-11T12:27:27.745Z,1.80
2018-03-11T12:28:28.003Z,1.50
2018-03-11T12:29:28.265Z,1.60
2018-03-11T12:30:28.527Z,1.30
2018-03-11T12:31:28.788Z,1.60
2018-03-11T12:32:29.049Z,1.60
2018-03-11T12:33:29.312Z,1.60
2018-03-11T12:34:29.602Z,1.70
2018-03-11T12:35:29.836Z,1.90
2018-03-11T12:36:30.103Z,1.70
2018-03-11T12:37:30.364Z,2.20
2018-03-11T12:38:30.624Z,1.70
2018-03-11T12:39:30.884Z,2.00
2018-03-11T12:40:31.143Z,1.80
2018-03-11T12:41:31.404Z,1.90
2018-03-11T12:42:31.666Z,1.90
2018-03-11T12:43:31.931Z,2.30
2018-03-11T12:44:32.191Z,2.20
2018-03-11T12:45:32.447Z,2.50
2018-03-11T12:46:32.708Z,2.30
2018-03-11T12:47:32.969Z,2.20
2018-03-11T12:48:33.232Z,2.50
2018-03-11T12:49:33.492Z,2.30
2018-03-11T12:50:33.751Z,2.30
2018-03-11T12:51:34.013Z,2.00
2018-03-11T12:52:34.323Z,2.40
2018-03-11T12:53:34.538Z,2.50
2018-03-11T12:54:34.794Z,2.30
2018-03-11T12:55:35.082Z,2.00
2018-03-11T12:56:35.346Z,2.20
2018-03-11T12:57:35.609Z,2.10
2018-03-11T12:58:35.870Z,2.40
2018-03-11T12:59:36.131Z,1.70
2018-03-11T13:00:36.398Z,2.40
2018-03-11T13:01:36.662Z,1.90
2018-03-11T13:02:36.925Z,2.20
2018-03-11T13:03:37.186Z,2.00
2018-03-11T13:04:37.440Z,2.00
2018-03-11T13:05:37.699Z,2.10
2018-03-11T13:06:37.956Z,2.20
2018-03-11T13:07:38.218Z,2.20